Terminal Aerodrome Forecast
Issued by NWS Dallas/Fort Worth, TX

Home | Current Version | Previous Version | Text Only | Print | Product List | Glossary On
Versions: 1 2 3 4 5 6 7 8 9 10 11 12 13 14 15 16 17 18 19 20 21 22 23 24 25 26 27 28 29 30 31 32 33 34 35 36 37 38 39 40 41
000
FTUS44 KFWD 200100 AAA
TAFACT
TAF AMD
KACT 200140Z 2002/2024 36007KT P6SM OVC013
      TEMPO 2004/2008 4SM BR
     FM200800 02003KT 2SM BR OVC006
     FM201700 06005KT P6SM OVC015
     FM201900 10006KT P6SM BKN025=

USA.gov is the U.S. government's official web portal to all federal, state and local government web resources and services.